Wesel-Römerwardt Airfield

EDLX · North Rhine-Westphalia, 德国

使用的METAR站距离机场32 km。
罗盘
风向 的 风向 020° Wesel-Römerwardt Airfield 8/26
风: 8 kt, 3 beaufort

3 kt

7 kt
改变
0 ft 1.000 2.000 3.000 4.000 5.000
Cloud Cloud Cloud Cloud Cloud Cloud
BKN 500
METAR EDLV 270650Z 02008KT 2700 BR BKN005 03/02 Q1017

METAR Wesel-Römerwardt Airfield - EDLX

Wesel-Römerwardt Airfield是,德国中的小机场。 该机场位于纬度51,66176和经度6,59672。 该机场有一条跑道: 8/26. 本场的ICAO机场代码为EDLX。 机场在Langen FIR中。

该航空气象观测是针对Weeze Airport在2024年2月27日 07:50, 当地时间进行的。

机场观察

风向为020°,速度为8 kt。

可见度为2,7 km。

有碎云在500 ft的高度。 破损或更高的上限为500 ft。

当前天气为薄雾。 温度为3 °C,阵风为-3 °C。 露点为2 °C,相对湿度为93%。 海平面上的气压为1017 hPa (QNH)。

白天

今天,太阳从07:23升起,在18:08降落。 这适用于Wesel-Römerwardt Airfield,世界夏令时可能有所不同。 当地时间与世界标准时间之间的时差为+1 小时。 当前,没有夏令时有效。

公司介绍

我们没有关于这个机场的公司信息。

体会

到Vliegles.nl去找飞行课程,跳伞和其他飞行体验。 浏览页面,了解Wesel-Römerwardt Airfield附近所有可用的活动。 你也可以使用搜索功能来寻找你所在地附近的特定飞行课程、跳伞或其他飞行体验。

跑道

Id 标题 侧风 逆风 侧风 %
8/26 088°-268° 7 kt 3 kt 93 %

逆风成分最大的方向会被突出显示,并用于横风计算。 这并不一定意味着这个方向在使用。

乌云

500 ft BKN 碎云

温度 & 天气

天气 薄雾
温度 3 °C
露点 2 °C
相对湿度 93%
风寒 -3 °C
Kp-index 3 (0-9)

白天

日出
07:25
中午
12:48
日落
18:10 (9:59)

小工具

你想在你的网站上有一个关于Wesel-Römerwardt Airfield的当前航空天气(METAR)的小部件吗?

显示HTML代码
?>